Time;durP1;ratioP1;P1;durP2;ratioP2;P2;SDS_P1;SDS_P2;PMS_P1;PMS_P2;Temp;Humidity;BMP_temperature;BMP_pressure;BME280_temperature;BME280_humidity;BME280_pressure;Samples;Min_cycle;Max_cycle;Signal;HPM_P1;HPM_P2
2023/12/21 00:01:41;;;;;;;9.90;6.07;;;;;;;8.01;100.00;100701.38;5111757;28;20088;-58
2023/12/21 00:04:07;;;;;;;19.05;5.68;;;;;;;8.06;100.00;100699.31;5094001;28;20066;-58
2023/12/21 00:06:32;;;;;;;18.23;6.95;;;;;;;8.04;100.00;100693.25;5124482;28;20099;-58
2023/12/21 00:08:58;;;;;;;16.95;6.45;;;;;;;7.92;100.00;100679.75;5113955;28;20023;-58
2023/12/21 00:11:23;;;;;;;10.68;5.70;;;;;;;7.95;100.00;100676.06;5093420;28;20393;-57
2023/12/21 00:13:49;;;;;;;14.10;7.20;;;;;;;7.94;100.00;100664.63;5093723;28;20074;-58
2023/12/21 00:16:16;;;;;;;13.02;6.50;;;;;;;8.09;100.00;100670.88;5093698;28;20450;-58
2023/12/21 00:18:42;;;;;;;16.13;6.78;;;;;;;7.96;100.00;100657.44;5118446;28;20034;-57
2023/12/21 00:21:07;;;;;;;13.43;7.95;;;;;;;7.92;100.00;100642.66;5119945;28;20106;-58
2023/12/21 00:23:32;;;;;;;9.55;6.63;;;;;;;7.93;100.00;100647.03;5093686;28;20054;-57
2023/12/21 00:25:58;;;;;;;12.25;7.03;;;;;;;7.96;100.00;100648.66;5097892;28;20110;-58
2023/12/21 00:28:23;;;;;;;17.02;7.78;;;;;;;7.92;100.00;100641.81;5124448;28;20196;-58
2023/12/21 00:30:49;;;;;;;13.18;6.97;;;;;;;8.00;100.00;100636.97;5100221;28;20026;-57
2023/12/21 00:33:14;;;;;;;16.27;7.00;;;;;;;7.92;100.00;100624.13;5120815;28;20386;-58
2023/12/21 00:35:40;;;;;;;14.63;7.70;;;;;;;7.97;100.00;100624.75;5093346;28;20108;-57
2023/12/21 00:38:05;;;;;;;13.88;7.40;;;;;;;8.01;100.00;100617.47;5092831;28;20402;-58
2023/12/21 00:40:31;;;;;;;14.38;8.07;;;;;;;8.03;100.00;100622.66;5118531;28;20031;-58
2023/12/21 00:42:57;;;;;;;11.50;6.40;;;;;;;8.04;100.00;100619.94;5115376;27;20477;-57
2023/12/21 00:45:23;;;;;;;12.35;7.13;;;;;;;7.99;100.00;100613.19;5105206;27;20027;-57
2023/12/21 00:47:48;;;;;;;19.65;8.27;;;;;;;7.87;100.00;100588.25;5124953;27;20034;-57
2023/12/21 00:50:14;;;;;;;17.10;8.00;;;;;;;7.95;100.00;100592.19;5096386;28;20019;-58
2023/12/21 00:52:40;;;;;;;9.93;6.32;;;;;;;8.00;100.00;100569.88;5115020;28;20152;-58
2023/12/21 00:55:08;;;;;;;10.48;7.20;;;;;;;7.97;100.00;100586.78;5107348;27;20031;-58
2023/12/21 00:57:33;;;;;;;19.20;9.35;;;;;;;7.94;100.00;100579.91;5114062;28;20517;-58
2023/12/21 00:59:59;;;;;;;9.40;6.38;;;;;;;8.01;100.00;100572.44;5114982;28;20064;-57
2023/12/21 01:02:25;;;;;;;17.23;8.52;;;;;;;7.97;100.00;100569.13;5096240;28;20031;-58
2023/12/21 01:04:52;;;;;;;11.30;8.07;;;;;;;8.02;100.00;100563.56;5096649;28;20054;-58
2023/12/21 01:07:18;;;;;;;12.57;7.15;;;;;;;8.11;100.00;100552.44;5114382;28;20019;-58
2023/12/21 01:09:43;;;;;;;15.00;7.38;;;;;;;8.06;100.00;100549.22;5096187;28;20035;-58
2023/12/21 01:12:09;;;;;;;16.75;8.40;;;;;;;8.06;100.00;100549.22;5096727;28;20276;-57
2023/12/21 01:14:34;;;;;;;11.88;7.10;;;;;;;8.07;100.00;100550.91;5095756;28;20051;-58
2023/12/21 01:17:00;;;;;;;13.73;7.15;;;;;;;7.96;100.00;100538.28;5114989;28;20024;-58
2023/12/21 01:19:26;;;;;;;15.82;8.35;;;;;;;7.92;100.00;100520.00;5095942;28;20034;-58
2023/12/21 01:21:52;;;;;;;13.50;7.45;;;;;;;7.95;100.00;100528.63;5114827;28;20051;-58
2023/12/21 01:24:18;;;;;;;14.82;7.40;;;;;;;7.94;100.00;100534.00;5100488;27;20107;-58
2023/12/21 01:26:43;;;;;;;9.75;6.82;;;;;;;8.01;100.00;100537.19;5115091;27;20039;-57
2023/12/21 01:29:09;;;;;;;14.90;7.18;;;;;;;8.00;100.00;100546.91;5125921;27;20538;-57
2023/12/21 01:31:34;;;;;;;13.82;7.60;;;;;;;8.04;100.00;100535.19;5095632;28;20032;-58
2023/12/21 01:34:01;;;;;;;10.57;7.78;;;;;;;7.99;100.00;100525.81;5120887;27;20023;-58
2023/12/21 01:36:27;;;;;;;12.77;6.40;;;;;;;8.06;100.00;100529.78;5110861;28;20038;-58
2023/12/21 01:38:52;;;;;;;12.38;7.47;;;;;;;8.02;100.00;100500.00;5112987;27;20410;-58
2023/12/21 01:41:18;;;;;;;13.90;6.82;;;;;;;8.02;100.00;100497.34;5097772;28;20032;-58
2023/12/21 01:43:43;;;;;;;12.50;7.93;;;;;;;7.99;100.00;100518.72;5108008;27;20027;-58
2023/12/21 01:46:09;;;;;;;14.73;7.10;;;;;;;8.05;100.00;100510.41;5120555;27;20019;-58
2023/12/21 01:48:36;;;;;;;13.40;7.75;;;;;;;8.03;100.00;100512.31;5115846;27;20099;-58
2023/12/21 01:51:02;;;;;;;14.93;7.85;;;;;;;8.00;100.00;100501.03;5122121;27;20381;-58
2023/12/21 01:53:32;;;;;;;20.98;9.85;;;;;;;8.07;100.00;100502.38;5118439;27;20069;-58
2023/12/21 01:56:00;;;;;;;10.93;7.80;;;;;;;8.02;100.00;100489.41;5108425;28;20029;-58
2023/12/21 01:58:25;;;;;;;15.82;8.80;;;;;;;7.91;100.00;100483.88;5113941;28;20031;-58
2023/12/21 02:00:52;;;;;;;8.95;5.97;;;;;;;8.10;100.00;100489.81;5113381;28;20024;-58
2023/12/21 02:03:18;;;;;;;17.45;9.35;;;;;;;8.00;100.00;100498.38;5119196;27;20110;-58
2023/12/21 02:05:44;;;;;;;22.50;8.40;;;;;;;8.02;100.00;100497.34;5100729;28;20422;-58
2023/12/21 02:08:09;;;;;;;16.55;10.63;;;;;;;8.03;100.00;100498.19;5131965;27;20565;-58
2023/12/21 02:10:39;;;;;;;18.75;9.90;;;;;;;8.08;100.00;100498.78;5115216;27;20054;-58
2023/12/21 02:13:04;;;;;;;20.05;10.93;;;;;;;7.99;100.00;100502.81;5101220;28;20023;-58
2023/12/21 02:15:30;;;;;;;20.70;9.50;;;;;;;8.03;100.00;100504.38;5113285;27;20050;-58
2023/12/21 02:17:58;;;;;;;17.67;10.10;;;;;;;8.05;100.00;100494.50;5097491;28;20030;-58
2023/12/21 02:20:24;;;;;;;14.85;8.70;;;;;;;8.12;100.00;100469.41;5097316;27;20070;-58
2023/12/21 02:22:54;;;;;;;19.95;10.02;;;;;;;8.03;100.00;100487.59;5112564;27;20055;-58
2023/12/21 02:25:19;;;;;;;;;;;;;;;8.09;100.00;100488.13;5099109;27;20554;-58
2023/12/21 02:27:49;;;;;;;15.32;9.13;;;;;;;8.05;100.00;100478.63;5097513;27;19916;-58
2023/12/21 02:30:14;;;;;;;;;;;;;;;8.07;100.00;100475.91;5116610;27;20031;-58
2023/12/21 02:32:39;;;;;;;12.27;8.40;;;;;;;8.22;100.00;100461.75;5116876;27;19911;-58
2023/12/21 02:35:05;;;;;;;11.15;7.20;;;;;;;8.20;100.00;100453.03;5125007;27;20051;-58
2023/12/21 02:37:31;;;;;;;14.98;8.63;;;;;;;8.06;100.00;100447.69;5124375;27;20050;-58
2023/12/21 02:39:56;;;;;;;15.43;9.02;;;;;;;8.03;100.00;100442.56;5117231;27;20470;-58
2023/12/21 02:42:24;;;;;;;25.08;10.45;;;;;;;8.02;100.00;100440.88;5094627;28;20020;-58
2023/12/21 02:44:49;;;;;;;16.63;8.85;;;;;;;8.21;100.00;100436.22;5092766;28;20032;-58
2023/12/21 02:47:15;;;;;;;19.83;9.88;;;;;;;8.03;100.00;100424.91;5104419;28;20482;-58
2023/12/21 02:49:40;;;;;;;24.00;8.93;;;;;;;8.08;100.00;100428.13;5096089;28;20035;-58
2023/12/21 02:52:05;;;;;;;14.77;7.32;;;;;;;8.12;100.00;100429.66;5113370;28;20038;-58
2023/12/21 02:54:33;;;;;;;18.60;9.40;;;;;;;8.07;100.00;100425.59;5118536;27;20489;-58
2023/12/21 02:56:59;;;;;;;20.95;9.48;;;;;;;8.09;100.00;100427.19;5105859;28;20024;-58
2023/12/21 02:59:24;;;;;;;12.85;7.55;;;;;;;8.19;100.00;100422.19;5112771;28;20027;-58
2023/12/21 03:01:50;;;;;;;16.88;8.20;;;;;;;8.14;100.00;100414.50;5112095;28;20040;-58
2023/12/21 03:04:15;;;;;;;13.48;8.30;;;;;;;8.02;100.00;100415.25;5094454;28;20440;-58
2023/12/21 03:06:40;;;;;;;23.38;9.60;;;;;;;8.07;100.00;100418.47;5112476;27;20054;-58
2023/12/21 03:09:06;;;;;;;21.63;8.63;;;;;;;8.04;100.00;100413.38;5110462;27;20366;-58
2023/12/21 03:11:32;;;;;;;16.70;8.25;;;;;;;8.04;100.00;100413.38;5110614;28;20134;-58
2023/12/21 03:13:57;;;;;;;17.35;8.32;;;;;;;8.05;100.00;100406.28;5113727;28;20024;-58
2023/12/21 03:16:23;;;;;;;22.90;8.07;;;;;;;8.06;100.00;100402.66;5120553;27;20042;-58
2023/12/21 03:18:48;;;;;;;18.58;7.45;;;;;;;8.05;100.00;100370.03;5113591;27;20062;-58
2023/12/21 03:21:17;;;;;;;14.38;6.75;;;;;;;8.02;100.00;100338.44;5112524;28;20059;-58
2023/12/21 03:23:42;;;;;;;14.68;5.85;;;;;;;8.08;100.00;100327.47;5114779;27;20038;-58
2023/12/21 03:26:11;;;;;;;22.00;7.13;;;;;;;8.09;100.00;100323.91;5104606;27;20031;-58
2023/12/21 03:28:44;;;;;;;14.73;6.38;;;;;;;8.09;100.00;100320.38;5114535;27;20446;-58
2023/12/21 03:31:10;;;;;;;19.42;5.85;;;;;;;8.09;100.00;100313.31;5112354;28;20492;-58
2023/12/21 03:33:36;;;;;;;12.85;6.38;;;;;;;8.01;100.00;100312.06;5096205;28;20027;-58
2023/12/21 03:36:04;;;;;;;18.55;7.25;;;;;;;8.10;100.00;100317.66;5112353;28;20458;-58
2023/12/21 03:38:29;;;;;;;14.20;6.22;;;;;;;8.07;100.00;100304.59;5093083;28;20062;-58
2023/12/21 03:40:55;;;;;;;12.98;6.30;;;;;;;8.05;100.00;100310.94;5093058;28;20026;-58
2023/12/21 03:43:20;;;;;;;25.60;6.50;;;;;;;8.08;100.00;100302.78;5094065;28;20027;-58
2023/12/21 03:45:46;;;;;;;17.10;6.97;;;;;;;8.07;100.00;100294.00;5094576;28;20110;-58
2023/12/21 03:48:11;;;;;;;21.88;6.93;;;;;;;8.13;100.00;100290.13;5124445;28;20046;-58
2023/12/21 03:50:37;;;;;;;16.10;6.68;;;;;;;8.17;100.00;100287.19;5127001;28;20027;-58
2023/12/21 03:53:03;;;;;;;22.25;7.28;;;;;;;8.11;100.00;100278.78;5108876;28;20470;-58
2023/12/21 03:55:29;;;;;;;14.73;5.72;;;;;;;8.20;100.00;100288.78;5079270;28;20103;-58
2023/12/21 03:57:56;;;;;;;25.98;8.27;;;;;;;8.07;100.00;100272.81;5097889;28;20030;-58
2023/12/21 04:00:22;;;;;;;15.05;5.82;;;;;;;8.16;100.00;100268.75;5111877;28;20470;-58
2023/12/21 04:02:47;;;;;;;18.08;7.20;;;;;;;8.14;100.00;100255.59;5093029;28;20019;-58
2023/12/21 04:05:13;;;;;;;16.17;6.15;;;;;;;8.25;100.00;100256.72;5111988;28;20100;-58
2023/12/21 04:07:38;;;;;;;18.90;7.82;;;;;;;8.16;100.00;100252.84;5127393;28;20031;-58
2023/12/21 04:10:04;;;;;;;22.48;7.60;;;;;;;8.17;100.00;100255.38;5094033;28;20024;-58
2023/12/21 04:12:30;;;;;;;14.05;5.88;;;;;;;8.12;100.00;100261.94;5085325;28;20035;-58
2023/12/21 04:14:56;;;;;;;21.88;7.63;;;;;;;8.04;100.00;100243.03;5110775;28;20077;-58
2023/12/21 04:17:21;;;;;;;17.17;8.35;;;;;;;8.13;100.00;100245.94;5133301;27;20027;-58
2023/12/21 04:19:47;;;;;;;20.73;9.13;;;;;;;8.12;100.00;100227.53;5131475;27;20397;-58
2023/12/21 04:22:14;;;;;;;25.63;9.30;;;;;;;8.20;100.00;100233.16;5115453;27;20034;-58
2023/12/21 04:24:40;;;;;;;17.42;7.22;;;;;;;8.27;100.00;100228.34;5098135;28;20371;-58
2023/12/21 04:27:06;;;;;;;27.58;8.38;;;;;;;8.25;100.00;100211.69;5117591;27;20220;-58
2023/12/21 04:29:31;;;;;;;20.08;8.88;;;;;;;8.22;100.00;100212.72;5097414;28;20684;-58
2023/12/21 04:31:57;;;;;;;15.70;8.18;;;;;;;8.19;100.00;100208.47;5096888;28;20019;-58
2023/12/21 04:34:22;;;;;;;24.17;10.48;;;;;;;8.18;100.00;100214.72;5115715;28;20028;-58
2023/12/21 04:36:48;;;;;;;21.70;9.48;;;;;;;8.30;100.00;100199.00;5115391;27;20119;-58
2023/12/21 04:39:13;;;;;;;25.80;8.25;;;;;;;8.27;100.00;100186.81;5115008;28;20044;-57
2023/12/21 04:41:38;;;;;;;21.92;9.40;;;;;;;8.18;100.00;100164.41;5115804;28;20072;-57
2023/12/21 04:44:05;;;;;;;20.42;10.02;;;;;;;8.30;100.00;100167.22;5097672;27;20038;-58
2023/12/21 04:46:31;;;;;;;27.60;10.85;;;;;;;8.32;100.00;100173.25;5115671;27;20019;-58
2023/12/21 04:48:59;;;;;;;15.85;8.05;;;;;;;8.32;100.00;100176.75;5117130;27;20106;-57
2023/12/21 04:51:24;;;;;;;20.42;9.95;;;;;;;8.29;100.00;100169.00;5104011;28;20036;-58
2023/12/21 04:53:52;;;;;;;22.02;10.32;;;;;;;8.36;100.00;100148.28;5113342;27;20030;-57
2023/12/21 04:56:17;;;;;;;17.40;7.82;;;;;;;8.40;100.00;100141.84;5125603;27;20031;-57
2023/12/21 04:58:42;;;;;;;17.52;8.85;;;;;;;8.40;100.00;100141.84;5116048;27;20027;-57
2023/12/21 05:01:08;;;;;;;27.50;10.70;;;;;;;8.43;100.00;100131.03;5113539;27;20458;-57
2023/12/21 05:03:34;;;;;;;13.50;7.18;;;;;;;8.49;100.00;100117.38;5115251;28;20063;-57
2023/12/21 05:06:00;;;;;;;17.02;8.02;;;;;;;8.51;100.00;100125.25;5112409;27;20030;-57
2023/12/21 05:08:26;;;;;;;22.80;9.38;;;;;;;8.42;100.00;100105.50;5098962;28;20027;-58
2023/12/21 05:10:51;;;;;;;22.85;8.60;;;;;;;8.40;100.00;100092.34;5126812;27;20019;-57
2023/12/21 05:13:16;;;;;;;17.80;7.50;;;;;;;8.45;100.00;100097.34;5103324;27;20417;-57
2023/12/21 05:15:42;;;;;;;23.00;10.45;;;;;;;8.52;100.00;100116.34;5105365;28;20035;-57
2023/12/21 05:18:07;;;;;;;21.75;7.75;;;;;;;8.45;100.00;100109.75;5123850;27;20159;-57
2023/12/21 05:20:33;;;;;;;16.23;8.07;;;;;;;8.55;100.00;100109.03;5114500;27;20056;-57
2023/12/21 05:22:59;;;;;;;15.63;7.80;;;;;;;8.57;100.00;100130.97;5114780;27;20031;-57
2023/12/21 05:25:24;;;;;;;14.63;7.45;;;;;;;8.50;100.00;100119.09;5108190;27;20039;-57
2023/12/21 05:27:50;;;;;;;14.25;6.05;;;;;;;8.70;100.00;100122.22;5122801;27;20481;-57
2023/12/21 05:30:19;;;;;;;14.13;6.25;;;;;;;8.57;100.00;100098.34;5110322;27;20027;-58
2023/12/21 05:32:47;;;;;;;17.57;7.63;;;;;;;8.62;100.00;100080.34;5097875;27;20031;-57
2023/12/21 05:35:13;;;;;;;13.00;5.85;;;;;;;8.72;100.00;100080.56;5109616;28;20431;-58
2023/12/21 05:37:41;;;;;;;12.35;6.28;;;;;;;8.64;100.00;100081.91;5094728;28;20032;-58
2023/12/21 05:40:08;;;;;;;;;;;;;;;8.60;100.00;100093.66;5059325;28;20554;-57
2023/12/21 05:42:34;;;;;;;11.38;6.45;;;;;;;8.62;100.00;100070.56;5068357;28;19920;-58
2023/12/21 05:45:02;;;;;;;8.75;5.68;;;;;;;8.72;100.00;100080.56;5083173;28;20032;-58
2023/12/21 05:47:27;;;;;;;15.75;5.35;;;;;;;8.58;100.00;100070.88;5067752;28;20090;-57
2023/12/21 05:49:53;;;;;;;18.67;6.03;;;;;;;8.67;100.00;100094.09;5089432;28;20032;-58
2023/12/21 05:52:18;;;;;;;18.02;5.95;;;;;;;8.69;100.00;100094.00;5087445;28;20021;-58
2023/12/21 05:54:46;;;;;;;13.05;4.72;;;;;;;8.68;100.00;100087.00;5071688;28;20028;-58
2023/12/21 05:57:12;;;;;;;11.18;5.03;;;;;;;8.69;100.00;100094.84;5083793;28;20059;-58
2023/12/21 05:59:38;;;;;;;13.80;5.70;;;;;;;8.68;100.00;100081.69;5073337;28;20495;-57
2023/12/21 06:02:03;;;;;;;7.70;4.47;;;;;;;8.67;100.00;100086.16;5091900;28;20020;-58
2023/12/21 06:04:29;;;;;;;8.18;5.10;;;;;;;8.71;100.00;100085.00;5062750;28;20381;-58
2023/12/21 06:06:54;;;;;;;17.70;4.95;;;;;;;8.75;100.00;100088.28;5071849;28;20024;-58
2023/12/21 06:09:20;;;;;;;8.82;5.43;;;;;;;8.73;100.00;100088.38;5082032;28;20035;-58
2023/12/21 06:11:45;;;;;;;15.13;5.97;;;;;;;8.73;100.00;100084.88;5074892;28;20032;-58
2023/12/21 06:14:10;;;;;;;14.60;5.55;;;;;;;8.61;100.00;100075.97;5081988;28;20494;-58
2023/12/21 06:16:36;;;;;;;8.95;5.72;;;;;;;8.68;100.00;100068.44;5062043;28;20032;-58
2023/12/21 06:19:09;;;;;;;9.68;5.90;;;;;;;8.65;100.00;100061.56;5077135;28;20068;-58
2023/12/21 06:21:36;;;;;;;15.18;6.60;;;;;;;8.65;100.00;100048.31;5092895;28;20080;-57
2023/12/21 06:24:02;;;;;;;13.15;7.22;;;;;;;8.75;100.00;100035.28;5078019;28;20486;-58
2023/12/21 06:26:27;;;;;;;11.32;6.40;;;;;;;8.66;100.00;100022.66;5090987;28;20032;-58
2023/12/21 06:28:53;;;;;;;14.18;5.68;;;;;;;8.61;100.00;100010.53;5073176;28;20032;-58
2023/12/21 06:31:20;;;;;;;17.40;7.30;;;;;;;8.57;100.00;100026.78;5082074;28;20055;-58
2023/12/21 06:33:48;;;;;;;13.38;7.55;;;;;;;8.50;100.00;100020.19;5077181;28;20039;-58
2023/12/21 06:36:14;;;;;;;16.55;8.05;;;;;;;8.50;100.00;100034.31;5071467;28;20115;-58
2023/12/21 06:38:40;;;;;;;14.85;7.57;;;;;;;8.46;100.00;100035.44;5110752;27;20051;-58
2023/12/21 06:41:05;;;;;;;9.02;6.72;;;;;;;8.43;100.00;100033.00;5121470;27;20050;-58
2023/12/21 06:43:30;;;;;;;14.23;7.32;;;;;;;8.52;100.00;100028.88;5094419;28;20019;-58
2023/12/21 06:45:57;;;;;;;14.70;6.88;;;;;;;8.51;100.00;100030.69;5100389;27;20026;-57
2023/12/21 06:48:22;;;;;;;15.25;6.47;;;;;;;8.56;100.00;100035.66;5120256;27;20034;-58
2023/12/21 06:50:48;;;;;;;15.85;5.88;;;;;;;8.55;100.00;100026.03;5095982;27;20326;-58
2023/12/21 06:53:15;;;;;;;18.77;7.47;;;;;;;8.57;100.00;100021.47;5117653;27;20035;-57
2023/12/21 06:55:42;;;;;;;19.35;6.78;;;;;;;8.53;100.00;100004.94;5124994;27;20057;-57
2023/12/21 06:58:08;;;;;;;15.48;5.97;;;;;;;8.69;100.00;99988.81;5094731;28;20032;-58
2023/12/21 07:00:33;;;;;;;12.73;5.65;;;;;;;8.59;100.00;99990.44;5113776;28;20028;-58
2023/12/21 07:03:00;;;;;;;8.40;5.10;;;;;;;8.69;100.00;99977.38;5112275;27;20037;-58
2023/12/21 07:05:25;;;;;;;10.63;4.43;;;;;;;8.76;100.00;99978.63;5094613;28;20066;-58
2023/12/21 07:07:51;;;;;;;15.00;5.60;;;;;;;8.61;100.00;99962.00;5098034;27;20027;-57
2023/12/21 07:10:16;;;;;;;8.20;4.22;;;;;;;8.79;100.00;99957.22;5131770;27;20415;-57
2023/12/21 07:12:41;;;;;;;11.73;5.70;;;;;;;8.68;100.00;99959.75;5076359;28;20386;-58
2023/12/21 07:15:07;;;;;;;12.50;5.20;;;;;;;8.66;100.00;99943.13;5100701;27;20051;-57
2023/12/21 07:17:32;;;;;;;10.55;5.10;;;;;;;8.63;100.00;99947.69;5114509;27;20477;-58
2023/12/21 07:19:58;;;;;;;10.85;5.35;;;;;;;8.59;100.00;99942.72;5112279;28;20439;-58
2023/12/21 07:22:25;;;;;;;10.68;5.50;;;;;;;8.70;100.00;99950.75;5112317;28;20060;-58
2023/12/21 07:24:51;;;;;;;13.45;5.38;;;;;;;8.62;100.00;99955.75;5114146;27;20378;-58
2023/12/21 07:27:16;;;;;;;10.57;4.97;;;;;;;8.67;100.00;99935.06;5112517;28;20024;-58
2023/12/21 07:29:43;;;;;;;10.50;5.63;;;;;;;8.67;100.00;99934.22;5114239;27;20039;-58
2023/12/21 07:32:09;;;;;;;9.18;4.68;;;;;;;8.78;100.00;99918.41;5112520;28;20019;-58
2023/12/21 07:34:35;;;;;;;10.48;4.97;;;;;;;8.65;100.00;99902.53;5112325;28;20080;-58
2023/12/21 07:37:00;;;;;;;13.65;4.82;;;;;;;8.76;100.00;99907.91;5093989;28;20031;-58
2023/12/21 07:39:25;;;;;;;13.20;4.38;;;;;;;8.80;100.00;99890.00;5090119;28;20544;-58
2023/12/21 07:41:51;;;;;;;7.63;4.07;;;;;;;8.86;100.00;99877.13;5091547;28;20028;-58
2023/12/21 07:44:16;;;;;;;11.25;5.15;;;;;;;8.79;100.00;99886.47;5091766;28;20437;-58
2023/12/21 07:46:42;;;;;;;14.30;3.85;;;;;;;8.96;100.00;99889.72;5091988;28;20518;-58
2023/12/21 07:49:10;;;;;;;8.32;4.75;;;;;;;8.80;100.00;99877.56;5092010;28;20024;-58
2023/12/21 07:51:36;;;;;;;6.55;4.38;;;;;;;8.89;100.00;99889.34;5091032;28;20132;-58
2023/12/21 07:54:01;;;;;;;8.57;4.28;;;;;;;8.89;100.00;99885.84;5091265;28;20060;-57
2023/12/21 07:56:26;;;;;;;10.82;4.72;;;;;;;8.98;100.00;99878.06;5090512;28;20081;-58
2023/12/21 07:58:52;;;;;;;14.95;4.70;;;;;;;8.95;100.00;99882.75;5091595;28;20028;-57
2023/12/21 08:01:17;;;;;;;10.73;4.85;;;;;;;9.00;100.00;99877.94;5090854;28;20070;-58
2023/12/21 08:03:46;;;;;;;13.43;4.45;;;;;;;8.90;100.00;99883.06;5096930;28;20074;-59
2023/12/21 08:06:23;;;;;;;10.68;4.38;;;;;;;8.92;100.00;99875.84;5107392;28;20482;-58
2023/12/21 08:08:52;;;;;;;6.15;3.78;;;;;;;8.92;100.00;99873.19;5109788;28;20027;-58
2023/12/21 08:11:20;;;;;;;10.13;4.63;;;;;;;8.87;100.00;99870.88;5110676;28;20539;-58
2023/12/21 08:13:45;;;;;;;7.38;3.65;;;;;;;8.95;100.00;99870.31;5111541;28;20063;-58
2023/12/21 08:16:10;;;;;;;7.97;4.38;;;;;;;8.83;100.00;99857.97;5092772;28;20048;-58
2023/12/21 08:18:36;;;;;;;9.90;4.53;;;;;;;8.87;100.00;99868.22;5096044;28;20029;-57
2023/12/21 08:21:01;;;;;;;8.32;4.63;;;;;;;8.90;100.00;99871.59;5110586;28;20024;-57
2023/12/21 08:23:26;;;;;;;6.35;3.30;;;;;;;8.89;100.00;99851.38;5109404;28;20031;-57
2023/12/21 08:25:52;;;;;;;5.47;4.07;;;;;;;8.84;100.00;99839.28;5103092;28;20062;-57
2023/12/21 08:28:17;;;;;;;9.13;4.80;;;;;;;8.84;100.00;99849.88;5098432;28;20390;-58
2023/12/21 08:30:45;;;;;;;9.98;4.15;;;;;;;8.84;100.00;99838.44;5090331;28;20032;-58
2023/12/21 08:33:13;;;;;;;9.63;4.65;;;;;;;8.81;100.00;99833.34;5094176;28;20077;-57
2023/12/21 08:35:39;;;;;;;8.77;4.63;;;;;;;8.87;100.00;99851.47;5088125;28;20409;-57
2023/12/21 08:38:04;;;;;;;8.68;4.40;;;;;;;8.81;100.00;99831.53;5070040;28;20072;-58
2023/12/21 08:40:30;;;;;;;5.03;3.45;;;;;;;8.95;100.00;99835.84;5090820;28;20036;-59
2023/12/21 08:42:56;;;;;;;7.93;4.35;;;;;;;8.85;100.00;99833.03;5090430;28;20086;-58
2023/12/21 08:45:22;;;;;;;8.95;4.30;;;;;;;8.77;100.00;99818.63;5102488;28;20027;-58
2023/12/21 08:47:47;;;;;;;6.22;3.08;;;;;;;8.89;100.00;99846.06;5095384;28;20031;-58
2023/12/21 08:50:13;;;;;;;6.75;3.80;;;;;;;8.89;100.00;99844.25;5089499;28;20042;-57
2023/12/21 08:52:41;;;;;;;4.28;3.88;;;;;;;8.88;100.00;99834.59;5089580;28;20090;-58
2023/12/21 08:55:08;;;;;;;8.02;4.03;;;;;;;8.84;100.00;99817.22;5090231;28;20024;-57
2023/12/21 08:57:36;;;;;;;5.85;4.03;;;;;;;8.86;100.00;99825.91;5095348;28;20031;-58
2023/12/21 09:00:08;;;;;;;6.93;4.15;;;;;;;8.85;100.00;99813.59;5094781;28;20103;-58
2023/12/21 09:02:35;;;;;;;6.55;4.07;;;;;;;8.83;100.00;99803.13;5099016;28;20031;-58
2023/12/21 09:05:00;;;;;;;4.18;3.45;;;;;;;9.05;100.00;99813.00;5096735;28;20019;-57
2023/12/21 09:07:26;;;;;;;5.32;3.53;;;;;;;9.03;100.00;99806.09;5102989;28;20027;-58
2023/12/21 09:09:51;;;;;;;5.85;4.40;;;;;;;8.93;100.00;99797.97;5093113;28;20039;-58
2023/12/21 09:12:18;;;;;;;6.97;4.28;;;;;;;8.89;100.00;99793.88;5107556;28;20061;-58
2023/12/21 09:14:44;;;;;;;9.13;4.30;;;;;;;9.00;100.00;99801.03;5095485;28;20596;-57
2023/12/21 09:17:10;;;;;;;12.25;6.13;;;;;;;8.93;100.00;99779.41;5095383;28;20028;-57
2023/12/21 09:19:37;;;;;;;7.65;4.03;;;;;;;9.02;100.00;99793.81;5099124;28;20485;-58
2023/12/21 09:22:03;;;;;;;10.73;4.55;;;;;;;9.03;100.00;99803.44;5105349;28;20125;-57
2023/12/21 09:24:28;;;;;;;9.18;3.97;;;;;;;9.04;100.00;99805.16;5103317;28;20307;-57
2023/12/21 09:26:54;;;;;;;7.85;4.28;;;;;;;9.04;100.00;99791.91;5110293;28;20462;-57
2023/12/21 09:29:19;;;;;;;9.13;4.15;;;;;;;9.05;100.00;99775.03;5102863;28;20073;-57
2023/12/21 09:31:45;;;;;;;5.03;3.13;;;;;;;9.05;100.00;99754.63;5102474;28;20038;-57
2023/12/21 09:34:11;;;;;;;11.05;4.03;;;;;;;9.14;100.00;99770.84;5098902;28;20081;-57
2023/12/21 09:36:36;;;;;;;8.23;4.25;;;;;;;9.06;100.00;99787.34;5102212;28;20028;-57
2023/12/21 09:39:03;;;;;;;9.25;3.78;;;;;;;9.13;100.00;99769.16;5089151;28;20045;-57
2023/12/21 09:41:28;;;;;;;5.22;3.13;;;;;;;9.13;100.00;99753.25;5074862;28;20475;-58
2023/12/21 09:43:57;;;;;;;7.03;3.30;;;;;;;9.15;100.00;99775.16;5081320;28;20089;-58
2023/12/21 09:46:25;;;;;;;7.45;2.88;;;;;;;9.18;100.00;99759.91;5073705;28;20030;-58
2023/12/21 09:48:53;;;;;;;10.38;2.90;;;;;;;9.28;100.00;99766.19;5078789;28;20035;-58
2023/12/21 09:51:19;;;;;;;6.90;3.00;;;;;;;9.26;100.00;99762.78;5073151;28;20021;-58
2023/12/21 09:53:47;;;;;;;6.70;3.03;;;;;;;9.27;100.00;99764.50;5080911;28;20036;-58
2023/12/21 09:56:14;;;;;;;7.90;3.15;;;;;;;9.27;100.00;99753.06;5078231;28;20138;-58
2023/12/21 09:58:41;;;;;;;6.38;2.78;;;;;;;9.31;100.00;99736.78;5077093;28;20024;-58
2023/12/21 10:01:07;;;;;;;9.30;3.65;;;;;;;9.29;100.00;99753.75;5073857;28;20029;-58
2023/12/21 10:03:33;;;;;;;6.40;2.50;;;;;;;9.40;100.00;99753.81;5082347;28;20054;-58
2023/12/21 10:05:59;;;;;;;5.22;2.60;;;;;;;9.49;100.00;99750.44;5073055;28;20024;-58
2023/12/21 10:08:25;;;;;;;9.93;3.78;;;;;;;9.52;100.00;99744.91;5084729;28;20411;-58
2023/12/21 10:10:50;;;;;;;12.80;3.80;;;;;;;9.51;100.00;99748.53;5071846;28;20082;-58
2023/12/21 10:13:16;;;;;;;6.75;2.70;;;;;;;9.58;100.00;99754.22;5072513;28;20066;-58
2023/12/21 10:15:46;;;;;;;7.05;2.88;;;;;;;9.64;100.00;99737.81;5067634;28;20025;-58
2023/12/21 10:18:11;;;;;;;11.90;2.88;;;;;;;9.61;100.00;99753.97;5081075;28;20398;-58
2023/12/21 10:20:38;;;;;;;5.13;2.60;;;;;;;9.68;100.00;99754.38;5072646;28;20115;-58
2023/12/21 10:23:03;;;;;;;13.65;4.53;;;;;;;9.68;100.00;99726.00;5071715;28;20028;-58
2023/12/21 10:25:29;;;;;;;6.35;2.63;;;;;;;9.65;100.00;99738.69;5070787;28;20621;-58
2023/12/21 10:27:55;;;;;;;7.45;3.00;;;;;;;9.73;100.00;99749.53;5069762;28;20116;-58
2023/12/21 10:30:24;;;;;;;7.80;2.90;;;;;;;9.79;100.00;99751.69;5046686;28;20025;-58
2023/12/21 10:32:55;;;;;;;6.70;3.00;;;;;;;9.76;100.00;99736.88;5074615;28;20054;-58
2023/12/21 10:35:20;;;;;;;11.85;4.10;;;;;;;9.72;100.00;99734.56;5081501;28;20039;-58
2023/12/21 10:37:48;;;;;;;9.45;2.85;;;;;;;9.81;100.00;99746.28;5085604;28;20052;-58
2023/12/21 10:40:14;;;;;;;6.90;2.83;;;;;;;9.88;100.00;99748.38;5111321;28;20034;-58
2023/12/21 10:42:47;;;;;;;12.30;4.15;;;;;;;9.75;100.00;99729.84;5113945;27;20535;-58
2023/12/21 10:45:17;;;;;;;11.35;3.92;;;;;;;9.86;100.00;99752.94;5093160;28;20016;-58
2023/12/21 10:47:49;;;;;;;4.97;2.20;;;;;;;9.93;100.00;99750.66;5093543;28;20466;-58
2023/12/21 10:50:19;;;;;;;8.00;2.42;;;;;;;9.99;100.00;99760.78;5110930;28;20073;-58
2023/12/21 10:52:48;;;;;;;7.07;2.75;;;;;;;9.97;100.00;99736.16;5115559;27;20069;-58
2023/12/21 10:55:16;;;;;;;7.63;2.22;;;;;;;9.88;100.00;99739.53;5107875;27;20038;-58
2023/12/21 10:57:42;;;;;;;10.45;2.45;;;;;;;9.91;100.00;99737.50;5111610;28;20494;-58
2023/12/21 11:00:12;;;;;;;11.13;4.07;;;;;;;9.83;100.00;99741.72;5092759;28;20477;-58
2023/12/21 11:02:54;;;;;;;6.75;2.60;;;;;;;9.87;100.00;99735.19;5114668;27;20031;-59
2023/12/21 11:05:22;;;;;;;14.88;4.05;;;;;;;9.87;100.00;99719.25;5100000;28;20032;-59
2023/12/21 11:07:54;;;;;;;7.75;2.50;;;;;;;9.90;100.00;99711.88;5113010;27;20023;-59
2023/12/21 11:10:22;;;;;;;7.20;2.55;;;;;;;9.85;100.00;99707.91;5112239;28;20482;-58
2023/12/21 11:12:48;;;;;;;7.18;2.85;;;;;;;9.93;100.00;99697.53;5106329;27;20584;-58
2023/12/21 11:15:15;;;;;;;12.93;4.57;;;;;;;9.97;100.00;99722.88;5094646;28;20031;-59
2023/12/21 11:17:44;;;;;;;8.35;3.10;;;;;;;10.00;100.00;99712.88;5111495;28;20045;-59
2023/12/21 11:20:16;;;;;;;7.95;2.80;;;;;;;9.99;100.00;99719.13;5115243;27;20028;-59